Time;durP1;ratioP1;P1;durP2;ratioP2;P2;SDS_P1;SDS_P2;PMS_P1;PMS_P2;Temp;Humidity;BMP_temperature;BMP_pressure;BME280_temperature;BME280_humidity;BME280_pressure;Samples;Min_cycle;Max_cycle;Signal;HPM_P1;HPM_P2
2022/10/04 00:00:35;;;;;;;6.40;2.70;;;12.10;99.90;;;;;;5076791;27;20046;-85
2022/10/04 00:03:26;;;;;;;3.75;2.40;;;;;;;;;;5008960;28;20044;-86
2022/10/04 00:06:29;;;;;;;7.28;2.50;;;;;;;;;;5052094;27;20079;-84
2022/10/04 00:09:15;;;;;;;5.60;2.60;;;;;;;;;;5052359;27;20040;-84
2022/10/04 00:12:01;;;;;;;6.15;2.80;;;;;;;;;;5037198;28;20376;-84
2022/10/04 00:14:46;;;;;;;6.43;2.70;;;;;;;;;;5052389;27;20043;-84
2022/10/04 00:17:34;;;;;;;5.63;2.88;;;;;;;;;;5051808;27;20088;-85
2022/10/04 00:20:49;;;;;;;6.63;2.80;;;12.00;99.90;;;;;;5052091;27;20085;-84
2022/10/04 00:23:37;;;;;;;6.00;2.60;;;;;;;;;;5049772;27;20085;-84
2022/10/04 00:26:22;;;;;;;5.38;3.00;;;;;;;;;;5052137;27;20086;-84
2022/10/04 00:29:25;;;;;;;5.78;2.95;;;12.00;99.90;;;;;;5036810;27;20388;-86
2022/10/04 00:32:09;;;;;;;7.43;2.63;;;;;;;;;;5051802;27;20073;-84
2022/10/04 00:34:55;;;;;;;4.53;2.67;;;;;;;;;;5036995;28;20082;-84
2022/10/04 00:37:59;;;;;;;5.22;2.75;;;11.90;99.90;;;;;;5051317;27;20036;-86
2022/10/04 00:40:45;;;;;;;8.50;3.40;;;;;;;;;;5050048;27;20094;-84
2022/10/04 00:43:30;;;;;;;6.68;3.42;;;;;;;;;;5043523;27;20161;-84
2022/10/04 00:46:26;;;;;;;9.73;3.20;;;;;;;;;;5033708;27;20047;-84
2022/10/04 00:49:12;;;;;;;9.50;3.40;;;;;;;;;;5051912;27;20055;-84
2022/10/04 00:52:08;;;;;;;6.28;2.72;;;;;;;;;;5051562;27;20062;-84
2022/10/04 00:54:56;;;;;;;5.72;2.65;;;;;;;;;;5051585;27;20120;-84
2022/10/04 00:57:43;;;;;;;8.20;2.85;;;;;;;;;;5036013;27;20058;-84
2022/10/04 01:00:32;;;;;;;6.70;2.38;;;;;;;;;;5050902;27;20133;-85
2022/10/04 01:03:20;;;;;;;8.93;2.40;;;;;;;;;;5051558;27;20041;-84
2022/10/04 01:06:06;;;;;;;6.55;2.72;;;;;;;;;;5051329;27;20162;-84
2022/10/04 01:08:52;;;;;;;4.75;2.50;;;;;;;;;;5051021;28;20058;-85
2022/10/04 01:11:47;;;;;;;4.75;2.40;;;;;;;;;;5035956;28;20123;-84
2022/10/04 01:14:40;;;;;;;4.28;2.45;;;;;;;;;;5053367;27;20036;-85
2022/10/04 01:17:25;;;;;;;4.72;2.70;;;;;;;;;;5051253;28;20044;-84
2022/10/04 01:20:33;;;;;;;7.82;2.72;;;11.70;99.90;;;;;;5050071;28;20044;-84
2022/10/04 01:23:44;;;;;;;5.90;1.90;;;11.70;99.90;;;;;;5083882;27;20041;-84
2022/10/04 01:26:29;;;;;;;5.85;2.63;;;;;;;;;;5043777;27;20088;-84
2022/10/04 01:29:13;;;;;;;6.45;3.05;;;;;;;;;;5051090;27;20040;-84
2022/10/04 01:31:59;;;;;;;7.07;3.03;;;11.60;99.90;;;;;;5051031;27;20124;-84
2022/10/04 01:34:44;;;;;;;8.27;3.28;;;;;;;;;;5050469;27;20046;-84
2022/10/04 01:37:28;;;;;;;3.95;2.58;;;;;;;;;;5050971;27;20036;-84
2022/10/04 01:40:13;;;;;;;5.20;2.83;;;;;;;;;;5035616;27;20393;-84
2022/10/04 01:43:01;;;;;;;7.22;2.67;;;;;;;;;;5050723;27;20081;-89
2022/10/04 01:45:48;;;;;;;5.72;3.10;;;;;;;;;;5050478;27;20044;-85
2022/10/04 01:48:36;;;;;;;9.27;2.97;;;;;;;;;;5124390;27;20047;-90
2022/10/04 01:51:23;;;;;;;12.52;2.78;;;;;;;;;;5035699;28;20043;-84
2022/10/04 01:54:18;;;;;;;4.80;2.97;;;;;;;;;;5050814;28;20173;-84
2022/10/04 01:57:15;;;;;;;8.48;2.83;;;;;;;;;;5035434;27;20074;-85
2022/10/04 02:00:08;;;;;;;6.13;2.60;;;;;;;;;;5050725;27;20047;-84
2022/10/04 02:02:55;;;;;;;7.22;2.55;;;;;;;;;;5039333;27;20113;-84
2022/10/04 02:05:42;;;;;;;5.93;3.17;;;;;;;;;;5049928;27;20036;-85
2022/10/04 02:08:29;;;;;;;7.13;2.88;;;;;;;;;;5050463;27;20085;-84
2022/10/04 02:11:18;;;;;;;6.25;2.58;;;;;;;;;;5086230;28;20039;-84
2022/10/04 02:14:04;;;;;;;6.38;3.33;;;;;;;;;;5050205;27;20488;-86
2022/10/04 02:16:53;;;;;;;4.68;2.72;;;;;;;;;;5049911;28;20058;-84
2022/10/04 02:19:39;;;;;;;6.60;2.60;;;;;;;;;;5086293;27;20047;-85
2022/10/04 02:22:25;;;;;;;5.78;2.40;;;;;;;;;;5072335;27;20534;-84
2022/10/04 02:25:10;;;;;;;4.43;2.53;;;;;;;;;;5050169;27;20112;-84
2022/10/04 02:27:56;;;;;;;6.15;2.80;;;;;;;;;;5048544;27;20031;-84
2022/10/04 02:30:42;;;;;;;7.82;2.42;;;;;;;;;;5034674;28;20491;-84
2022/10/04 02:33:27;;;;;;;7.88;3.13;;;;;;;;;;5050101;28;20077;-84
2022/10/04 02:36:12;;;;;;;9.30;2.70;;;;;;;;;;5049827;27;20044;-84
2022/10/04 02:39:01;;;;;;;7.75;2.72;;;;;;;;;;5042516;28;20085;-84
2022/10/04 02:41:48;;;;;;;5.47;2.85;;;;;;;;;;5049466;27;20165;-84
2022/10/04 02:44:40;;;;;;;4.82;3.05;;;;;;;;;;5034733;27;20507;-84
2022/10/04 02:47:28;;;;;;;8.95;3.03;;;;;;;;;;5049752;27;20044;-84
2022/10/04 02:50:23;;;;;;;11.88;3.10;;;;;;;;;;5034740;28;20048;-84
2022/10/04 02:53:13;;;;;;;6.78;2.65;;;;;;;;;;5049827;28;20393;-84
2022/10/04 02:55:58;;;;;;;9.00;3.03;;;;;;;;;;5049384;27;20090;-84
2022/10/04 02:58:43;;;;;;;8.82;2.92;;;;;;;;;;5049356;27;20044;-85
2022/10/04 03:01:35;;;;;;;8.73;3.17;;;;;;;;;;5034688;28;20075;-84
2022/10/04 03:04:22;;;;;;;6.75;3.00;;;;;;;;;;5062953;28;20077;-84
2022/10/04 03:07:08;;;;;;;5.80;2.70;;;;;;;;;;5034106;27;20036;-84
2022/10/04 03:09:53;;;;;;;8.50;2.97;;;;;;;;;;5049142;27;20041;-84
2022/10/04 03:12:39;;;;;;;5.15;2.88;;;;;;;;;;5034453;27;20148;-84
2022/10/04 03:15:24;;;;;;;9.30;4.20;;;;;;;;;;5034328;27;20085;-87
2022/10/04 03:18:09;;;;;;;5.65;3.03;;;;;;;;;;5034772;28;20062;-84
2022/10/04 03:20:54;;;;;;;7.05;3.03;;;;;;;;;;5048854;27;20048;-84
2022/10/04 03:23:39;;;;;;;7.15;3.25;;;;;;;;;;5034389;28;20040;-84
2022/10/04 03:26:23;;;;;;;5.65;3.08;;;;;;;;;;5049091;28;20036;-84
2022/10/04 03:29:09;;;;;;;9.02;3.00;;;;;;;;;;5033824;27;20052;-84
2022/10/04 03:31:57;;;;;;;9.75;3.30;;;;;;;;;;5100715;27;20505;-84
2022/10/04 03:34:48;;;;;;;5.72;3.22;;;;;;;;;;5052058;27;20035;-85
2022/10/04 03:37:35;;;;;;;7.38;3.13;;;;;;;;;;5049092;27;20517;-84
2022/10/04 03:40:26;;;;;;;12.48;3.47;;;;;;;;;;5041121;28;20045;-84
2022/10/04 03:43:12;;;;;;;10.27;3.70;;;;;;;;;;5052207;27;20110;-84
2022/10/04 03:45:57;;;;;;;9.07;3.25;;;;;;;;;;5052223;27;20436;-84
2022/10/04 03:48:49;;;;;;;7.50;3.42;;;;;;;;;;5052095;27;20553;-85
2022/10/04 03:51:34;;;;;;;8.88;3.75;;;;;;;;;;5052694;27;20059;-84
2022/10/04 03:54:22;;;;;;;6.80;3.13;;;;;;;;;;5052565;27;20097;-84
2022/10/04 03:57:07;;;;;;;6.30;3.05;;;;;;;;;;5052014;27;20171;-84
2022/10/04 03:59:52;;;;;;;7.03;2.92;;;;;;;;;;5036858;28;20040;-85
2022/10/04 04:02:48;;;;;;;5.88;3.08;;;10.70;99.90;;;;;;5065529;28;20036;-84
2022/10/04 04:05:45;;;;;;;10.95;3.70;;;;;;;;;;5052380;27;20104;-84
2022/10/04 04:08:34;;;;;;;13.00;3.25;;;;;;;;;;5052368;27;20518;-84
2022/10/04 04:11:22;;;;;;;6.32;3.72;;;;;;;;;;5037228;28;20081;-84
2022/10/04 04:14:11;;;;;;;7.20;3.33;;;;;;;;;;5070099;27;20147;-84
2022/10/04 04:17:13;;;;;;;4.88;3.25;;;;;;;;;;5074561;27;20165;-84
2022/10/04 04:19:59;;;;;;;6.60;3.28;;;;;;;;;;5064768;28;20146;-84
2022/10/04 04:22:45;;;;;;;6.28;3.65;;;;;;;;;;5051953;27;20028;-84
2022/10/04 04:25:32;;;;;;;5.65;2.90;;;;;;;;;;5036983;28;20032;-84
2022/10/04 04:28:28;;;;;;;7.90;3.35;;;;;;;;;;5064809;28;20036;-84
2022/10/04 04:31:25;;;;;;;6.30;3.38;;;;;;;;;;5051515;27;20325;-84
2022/10/04 04:34:16;;;;;;;8.60;3.92;;;;;;;;;;5051391;27;20529;-84
2022/10/04 04:37:04;;;;;;;4.55;3.33;;;;;;;;;;5036316;28;20039;-84
2022/10/04 04:39:53;;;;;;;11.82;3.78;;;;;;;;;;5064712;27;20408;-84
2022/10/04 04:42:38;;;;;;;5.88;3.38;;;;;;;;;;5051716;27;20077;-84
2022/10/04 04:45:24;;;;;;;6.75;3.58;;;;;;;;;;5050716;28;20450;-84
2022/10/04 04:48:14;;;;;;;6.68;3.38;;;;;;;;;;5064302;27;20032;-84
2022/10/04 04:50:58;;;;;;;7.68;3.08;;;;;;;;;;5050367;28;20056;-85
2022/10/04 04:53:43;;;;;;;6.35;3.42;;;;;;;;;;5036466;27;20040;-85
2022/10/04 04:56:28;;;;;;;5.68;3.10;;;;;;;;;;5051602;27;20456;-84
2022/10/04 04:59:13;;;;;;;6.50;3.30;;;;;;;;;;5036143;28;20384;-84
2022/10/04 05:01:58;;;;;;;6.45;3.47;;;;;;;;;;5049816;27;20059;-85
2022/10/04 05:04:43;;;;;;;9.77;4.60;;;;;;;;;;5036432;28;20037;-87
2022/10/04 05:07:28;;;;;;;8.88;3.72;;;;;;;;;;5051337;27;20089;-84
2022/10/04 05:10:31;;;;;;;8.20;3.83;;;;;;;;;;5035949;28;20124;-84
2022/10/04 05:13:17;;;;;;;6.25;3.42;;;;;;;;;;5054673;28;20552;-84
2022/10/04 05:16:01;;;;;;;7.63;3.90;;;;;;;;;;5063789;28;20044;-84
2022/10/04 05:18:46;;;;;;;4.70;3.50;;;;;;;;;;5036019;28;20119;-84
2022/10/04 05:21:32;;;;;;;9.35;4.25;;;;;;;;;;5039427;28;20511;-84
2022/10/04 05:24:23;;;;;;;10.60;4.00;;;;;;;;;;5050610;27;20045;-84
2022/10/04 05:27:15;;;;;;;8.55;4.13;;;;;;;;;;5035594;28;20040;-84
2022/10/04 05:30:06;;;;;;;7.72;4.00;;;;;;;;;;5051015;27;20077;-84
2022/10/04 05:32:53;;;;;;;12.52;3.97;;;;;;;;;;5035863;27;20440;-84
2022/10/04 05:35:42;;;;;;;8.45;3.90;;;;;;;;;;5036057;28;20101;-84
2022/10/04 05:38:33;;;;;;;5.88;3.65;;;;;;;;;;5064058;28;20039;-84
2022/10/04 05:41:40;;;;;;;10.73;4.63;;;;;;;;;;5121173;27;20110;-84
2022/10/04 05:44:58;;;;;;;6.30;3.95;;;;;;;;;;5045311;27;20077;-84
2022/10/04 05:47:43;;;;;;;6.65;4.05;;;;;;;;;;5058103;28;20040;-84
2022/10/04 05:50:34;;;;;;;6.95;3.70;;;;;;;;;;5049394;27;20071;-84
2022/10/04 05:53:25;;;;;;;9.90;4.00;;;;;;;;;;5050239;27;20040;-84
2022/10/04 05:56:10;;;;;;;7.25;3.67;;;;;;;;;;5035294;28;20056;-84
2022/10/04 05:59:19;;;;;;;15.45;4.68;;;10.20;99.90;;;;;;5036505;27;20488;-84
2022/10/04 06:02:04;;;;;;;6.32;3.83;;;;;;;;;;5035146;27;20093;-84
2022/10/04 06:04:49;;;;;;;6.00;3.92;;;;;;;;;;5035435;28;20048;-84
2022/10/04 06:07:33;;;;;;;7.82;4.07;;;;;;;;;;5063460;27;20105;-84
2022/10/04 06:10:30;;;;;;;7.05;3.85;;;;;;;;;;5020979;27;20064;-89
2022/10/04 06:13:14;;;;;;;7.60;4.35;;;;;;;;;;5050168;28;20116;-84
2022/10/04 06:16:20;;;;;;;7.50;4.60;;;10.10;99.90;;;;;;5048208;27;20056;-84
2022/10/04 06:19:20;;;;;;;7.43;4.13;;;;;;;;;;5035111;27;20540;-84
2022/10/04 06:22:18;;;;;;;6.63;4.15;;;;;;;;;;5050161;27;20060;-84
2022/10/04 06:25:05;;;;;;;9.18;4.63;;;;;;;;;;5039666;28;20036;-84
2022/10/04 06:27:55;;;;;;;7.78;4.18;;;;;;;;;;5047454;28;20043;-84
2022/10/04 06:31:08;;;;;;;8.70;4.40;;;10.20;99.90;;;;;;5050227;27;20094;-84
2022/10/04 06:34:16;;;;;;;10.10;5.22;;;;;;;;;;5042310;27;20040;-84
2022/10/04 06:37:10;;;;;;;12.27;5.05;;;;;;;;;;5033250;28;20045;-84
2022/10/04 06:39:54;;;;;;;8.30;4.93;;;;;;;;;;5049682;27;20528;-84
2022/10/04 06:43:20;;;;;;;11.98;5.22;;;10.40;99.90;;;;;;5049846;27;20412;-84
2022/10/04 06:46:07;;;;;;;7.82;4.55;;;;;;;;;;5049766;27;20106;-85
2022/10/04 06:49:03;;;;;;;13.00;5.15;;;;;;;;;;5034594;28;20055;-83
2022/10/04 06:52:11;;;;;;;7.80;4.65;;;;;;;;;;5049589;27;20044;-85
2022/10/04 06:54:59;;;;;;;9.68;5.10;;;;;;;;;;5035022;28;20040;-84
2022/10/04 06:58:20;;;;;;;7.78;4.85;;;10.80;99.90;;;;;;5049780;28;20040;-84
2022/10/04 07:01:09;;;;;;;8.00;4.97;;;;;;;;;;5049784;27;20048;-84
2022/10/04 07:04:12;;;;;;;8.63;5.53;;;;;;;;;;5034426;27;20052;-84
2022/10/04 07:07:26;;;;;;;13.43;5.05;;;;;;;;;;5049531;27;20036;-84
2022/10/04 07:10:19;;;;;;;6.70;4.67;;;;;;;;;;5034570;28;20093;-84
2022/10/04 07:13:15;;;;;;;11.43;5.53;;;;;;;;;;5051049;28;20081;-84
2022/10/04 07:16:08;;;;;;;9.07;4.80;;;;;;;;;;5049341;27;20067;-84
2022/10/04 07:18:53;;;;;;;10.13;4.82;;;;;;;;;;5034358;28;20128;-84
2022/10/04 07:21:41;;;;;;;7.03;4.40;;;;;;;;;;5049053;27;20533;-84
2022/10/04 07:24:49;;;;;;;8.85;4.72;;;;;;;;;;5033859;27;20056;-85
2022/10/04 07:29:19;;;;;;;7.53;4.95;;;;;;;;;;5033928;27;20503;-84
2022/10/04 07:30:58;;;;;;;12.15;4.60;;;;;;;;;;5049235;27;20048;-85
2022/10/04 07:33:45;;;;;;;7.15;4.55;;;;;;;;;;5034268;28;20036;-84
2022/10/04 07:36:38;;;;;;;8.23;4.20;;;;;;;;;;5061895;28;20544;-85
2022/10/04 07:39:26;;;;;;;8.20;4.40;;;;;;;;;;5033658;27;20112;-84
2022/10/04 07:42:31;;;;;;;10.35;4.70;;;;;;;;;;5049080;27;20116;-84
2022/10/04 07:45:21;;;;;;;7.82;4.10;;;;;;;;;;5049405;27;20085;-84
2022/10/04 07:48:08;;;;;;;9.43;5.00;;;;;;;;;;5049276;27;20069;-85
2022/10/04 07:51:12;;;;;;;6.53;4.30;;;19.60;99.90;;;;;;5049184;28;20516;-85
2022/10/04 07:53:56;;;;;;;7.15;4.20;;;;;;;;;;5033924;27;20089;-85
2022/10/04 07:56:46;;;;;;;9.20;4.38;;;;;;;;;;5033634;28;20457;-84
2022/10/04 07:59:35;;;;;;;8.88;5.25;;;;;;;;;;5061715;28;20530;-84
2022/10/04 08:02:23;;;;;;;10.85;4.63;;;;;;;;;;5048671;27;20062;-92
2022/10/04 08:05:33;;;;;;;8.32;3.70;;;18.10;99.90;;;;;;5034028;28;20444;-85
2022/10/04 08:08:18;;;;;;;9.95;4.88;;;;;;;;;;5049035;27;20089;-85
2022/10/04 08:11:16;;;;;;;7.38;4.03;;;;;;;;;;5020416;28;20036;-84
2022/10/04 08:14:18;;;;;;;6.40;3.60;;;18.20;99.90;;;;;;5037011;27;20077;-84
2022/10/04 08:17:06;;;;;;;7.55;4.18;;;;;;;;;;5048702;27;20044;-85
2022/10/04 08:19:57;;;;;;;5.90;3.60;;;;;;;;;;5037430;28;20154;-84
2022/10/04 08:22:45;;;;;;;6.22;3.67;;;;;;;;;;5033127;27;20262;-84
2022/10/04 08:25:31;;;;;;;7.07;3.65;;;;;;;;;;5049042;27;20062;-84
2022/10/04 08:31:28;;;;;;;8.40;3.33;;;;;;;;;;5051851;27;20124;-85
2022/10/04 08:34:43;;;;;;;5.88;3.38;;;17.30;99.90;;;;;;5051784;27;20045;-85
2022/10/04 08:37:46;;;;;;;5.50;3.50;;;18.50;99.90;;;;;;5051740;27;20170;-84
2022/10/04 08:40:32;;;;;;;7.70;3.42;;;;;;;;;;5036415;28;20113;-84
2022/10/04 08:44:17;;;;;;;6.55;3.90;;;18.70;99.90;;;;;;5064870;28;20086;-83
2022/10/04 08:47:39;;;;;;;8.63;4.05;;;18.50;99.90;;;;;;5087320;28;20411;-85
2022/10/04 08:50:43;;;;;;;7.30;3.42;;;;;;;;;;5050348;27;20097;-85
2022/10/04 08:53:34;;;;;;;6.47;3.25;;;;;;;;;;5036155;27;20106;-85
2022/10/04 08:56:25;;;;;;;6.90;2.92;;;;;;;;;;5051624;28;20072;-84
2022/10/04 08:59:10;;;;;;;7.22;2.80;;;;;;;;;;5051544;27;20537;-84
2022/10/04 09:02:16;;;;;;;7.95;3.25;;;;;;;;;;5036250;27;20105;-85
2022/10/04 09:05:00;;;;;;;6.28;3.17;;;;;;;;;;5051474;27;20036;-84
2022/10/04 09:07:45;;;;;;;5.32;2.80;;;;;;;;;;5051109;27;20113;-83
2022/10/04 09:10:43;;;;;;;5.63;2.90;;;;;;;;;;5050795;27;20040;-84
2022/10/04 09:13:34;;;;;;;4.95;2.95;;;;;;;;;;5036416;28;20040;-83
2022/10/04 09:16:25;;;;;;;5.47;3.30;;;;;;;;;;5038838;27;20050;-84
2022/10/04 09:19:16;;;;;;;5.68;3.08;;;;;;;;;;5036094;27;20077;-84
2022/10/04 09:22:17;;;;;;;6.03;3.28;;;;;;;;;;5051006;27;20056;-84
2022/10/04 09:25:29;;;;;;;5.95;3.25;;;16.40;99.90;;;;;;5033745;28;20172;-84
2022/10/04 09:28:19;;;;;;;4.18;2.53;;;;;;;;;;5051854;28;20178;-84
2022/10/04 09:31:05;;;;;;;5.00;2.65;;;;;;;;;;5050947;27;20438;-84
2022/10/04 09:34:16;;;;;;;5.03;2.72;;;;;;;;;;5050581;27;20384;-84
2022/10/04 09:37:03;;;;;;;4.80;2.60;;;;;;;;;;5040531;27;20157;-84
2022/10/04 09:40:25;;;;;;;6.95;3.17;;;16.40;99.90;;;;;;5035328;28;20130;-84
2022/10/04 09:43:20;;;;;;;6.63;2.83;;;;;;;;;;5021815;28;20039;-84
2022/10/04 09:46:15;;;;;;;6.35;2.75;;;;;;;;;;5035514;27;20067;-84
2022/10/04 09:49:12;;;;;;;4.75;2.90;;;;;;;;;;5035305;28;20055;-84
2022/10/04 09:52:15;;;;;;;5.00;2.70;;;17.60;99.90;;;;;;5035172;27;20036;-84
2022/10/04 09:55:04;;;;;;;3.67;2.60;;;;;;;;;;5035441;27;20044;-86
2022/10/04 09:58:04;;;;;;;5.30;2.72;;;;;;;;;;5050250;28;20116;-84
2022/10/04 10:00:59;;;;;;;5.70;2.35;;;;;;;;;;5035046;28;20132;-84
2022/10/04 10:03:45;;;;;;;5.15;3.05;;;;;;;;;;5049969;27;20071;-84
2022/10/04 10:07:02;;;;;;;3.70;2.50;;;17.50;99.90;;;;;;5050432;27;20032;-84
2022/10/04 10:13:43;;;;;;;4.68;2.28;;;17.50;99.90;;;;;;5041214;27;20208;-84
2022/10/04 10:16:30;;;;;;;4.30;2.45;;;;;;;;;;5032415;28;20052;-84
2022/10/04 10:19:24;;;;;;;4.75;2.40;;;;;;;;;;5047964;27;20491;-84
2022/10/04 10:22:15;;;;;;;5.32;2.47;;;;;;;;;;5035062;28;20523;-85
2022/10/04 10:25:20;;;;;;;4.35;2.22;;;;;;;;;;5063018;28;20060;-84
2022/10/04 10:28:24;;;;;;;5.45;2.10;;;;;;;;;;5035007;28;20090;-83
2022/10/04 10:31:17;;;;;;;4.10;2.23;;;;;;;;;;5063162;27;20084;-85
2022/10/04 10:34:20;;;;;;;3.72;2.30;;;19.00;99.90;;;;;;5034731;28;20478;-84
2022/10/04 10:37:08;;;;;;;6.72;2.58;;;;;;;;;;5039514;28;20036;-85
2022/10/04 10:39:59;;;;;;;3.35;2.13;;;;;;;;;;5078939;27;20065;-84
2022/10/04 10:43:04;;;;;;;4.28;1.98;;;;;;;;;;5075205;27;20128;-83
2022/10/04 10:46:22;;;;;;;5.90;2.30;;;18.20;99.90;;;;;;5034456;28;20082;-83
2022/10/04 10:49:06;;;;;;;7.13;2.50;;;;;;;;;;5039258;28;20075;-83
2022/10/04 10:52:05;;;;;;;5.68;2.20;;;;;;;;;;5049243;27;20043;-84
2022/10/04 10:55:01;;;;;;;3.88;2.20;;;;;;;;;;5049566;27;20446;-84
2022/10/04 10:58:08;;;;;;;3.13;1.60;;;;;;;;;;5043103;27;20086;-83
2022/10/04 11:00:56;;;;;;;6.15;2.28;;;;;;;;;;5035650;27;20040;-84
2022/10/04 11:03:47;;;;;;;4.93;2.13;;;;;;;;;;5049472;27;20081;-84
2022/10/04 11:06:34;;;;;;;5.78;2.30;;;;;;;;;;5034319;28;20036;-84
2022/10/04 11:09:22;;;;;;;4.45;2.08;;;;;;;;;;5062176;28;20060;-85
2022/10/04 11:12:12;;;;;;;2.83;1.70;;;;;;;;;;5032635;28;20553;-82
2022/10/04 11:15:15;;;;;;;4.30;2.03;;;;;;;;;;5039497;27;20036;-83
2022/10/04 11:18:00;;;;;;;4.85;2.08;;;;;;;;;;5027307;27;20441;-83
2022/10/04 11:21:06;;;;;;;4.38;2.33;;;18.30;99.90;;;;;;5028912;27;20094;-89
2022/10/04 11:24:40;;;;;;;4.40;1.80;;;18.40;99.90;;;;;;5028746;28;20094;-83
2022/10/04 11:27:34;;;;;;;3.97;1.80;;;;;;;;;;5029087;27;20041;-83
2022/10/04 11:30:28;;;;;;;9.27;2.15;;;;;;;;;;5029027;27;20063;-83
2022/10/04 11:33:25;;;;;;;6.25;2.47;;;;;;;;;;5026105;28;20072;-82
2022/10/04 11:36:25;;;;;;;3.88;2.00;;;;;;;;;;5051000;28;20063;-83
2022/10/04 11:39:12;;;;;;;4.00;2.28;;;;;;;;;;5028518;28;20048;-83
2022/10/04 11:42:20;;;;;;;4.97;2.33;;;;;;;;;;5033026;27;20044;-83
2022/10/04 11:45:25;;;;;;;3.88;1.92;;;;;;;;;;5028315;27;20456;-83
2022/10/04 11:48:16;;;;;;;4.13;2.58;;;;;;;;;;5049776;28;20029;-83
2022/10/04 11:51:17;;;;;;;9.50;2.47;;;;;;;;;;5037543;28;20052;-84
2022/10/04 11:54:17;;;;;;;5.70;2.13;;;;;;;;;;5033126;28;20059;-84
2022/10/04 11:57:20;;;;;;;3.90;1.92;;;;;;;;;;5048073;27;20553;-83
2022/10/04 12:00:13;;;;;;;3.60;2.17;;;;;;;;;;5066623;27;20031;-84
2022/10/04 12:03:08;;;;;;;4.18;2.40;;;;;;;;;;5032591;28;20040;-86
2022/10/04 12:05:55;;;;;;;5.05;2.28;;;;;;;;;;5050446;28;20043;-87
2022/10/04 12:08:55;;;;;;;4.45;2.13;;;;;;;;;;5064659;27;20541;-84
2022/10/04 12:15:29;;;;;;;3.70;2.00;;;;;;;;;;5031498;27;20082;-85
2022/10/04 12:18:27;;;;;;;3.85;2.10;;;;;;;;;;5053662;27;20096;-83
2022/10/04 12:21:27;;;;;;;7.03;2.20;;;;;;;;;;5064053;27;20040;-85
2022/10/04 12:24:52;;;;;;;4.50;1.95;;;18.90;99.90;;;;;;5053011;27;20044;-90
2022/10/04 12:27:45;;;;;;;4.97;2.40;;;;;;;;;;5037292;28;20058;-91
2022/10/04 12:30:49;;;;;;;4.50;2.22;;;;;;;;;;5054710;28;20048;-88
2022/10/04 12:33:46;;;;;;;;;;;19.00;99.90;;;;;;5053000;27;20037;-87
2022/10/04 12:36:31;;;;;;;5.35;2.17;;;;;;;;;;5036834;27;19915;-87
2022/10/04 12:39:27;;;;;;;4.63;2.63;;;;;;;;;;5051052;27;20031;-88
2022/10/04 12:42:23;;;;;;;7.00;2.40;;;;;;;;;;5036052;28;20097;-86
2022/10/04 12:45:14;;;;;;;4.53;2.55;;;;;;;;;;5051371;27;20145;-87
2022/10/04 12:48:10;;;;;;;5.35;2.38;;;;;;;;;;5036307;28;20040;-87
2022/10/04 12:51:08;;;;;;;7.10;2.63;;;;;;;;;;5040232;27;20454;-88
2022/10/04 12:54:00;;;;;;;3.40;2.03;;;;;;;;;;5061657;27;20461;-88
2022/10/04 12:56:46;;;;;;;7.70;2.97;;;;;;;;;;5065545;27;20427;-88
2022/10/04 12:59:54;;;;;;;5.95;3.05;;;;;;;;;;5036512;28;20036;-88
2022/10/04 13:02:58;;;;;;;5.68;2.58;;;;;;;;;;5057540;27;20548;-89
2022/10/04 13:05:46;;;;;;;8.95;2.70;;;;;;;;;;5036732;27;20067;-88
2022/10/04 13:08:44;;;;;;;8.45;3.17;;;;;;;;;;5052655;27;20040;-90
2022/10/04 13:11:39;;;;;;;5.18;2.70;;;;;;;;;;5047160;28;20064;-89
2022/10/04 13:14:24;;;;;;;7.28;2.53;;;;;;;;;;5084931;27;20036;-90
2022/10/04 13:17:09;;;;;;;5.22;2.72;;;;;;;;;;5052428;28;20552;-89
2022/10/04 13:20:12;;;;;;;4.15;1.95;;;;;;;;;;5031214;28;20033;-91
2022/10/04 13:23:03;;;;;;;8.20;2.83;;;;;;;;;;5032863;28;20048;-89
2022/10/04 13:25:47;;;;;;;4.72;2.45;;;;;;;;;;5051262;28;20040;-90
2022/10/04 13:28:32;;;;;;;7.65;2.65;;;;;;;;;;5040761;28;20039;-90
2022/10/04 13:31:31;;;;;;;5.50;2.30;;;;;;;;;;5055389;27;20036;-91
2022/10/04 13:34:36;;;;;;;5.25;2.33;;;;;;;;;;5047008;28;20040;-89
2022/10/04 13:38:15;;;;;;;8.20;2.53;;;19.20;99.90;;;;;;5051549;28;20082;-90
2022/10/04 13:41:06;;;;;;;3.65;1.50;;;;;;;;;;5078063;28;20113;-88
2022/10/04 13:44:12;;;;;;;3.60;1.80;;;;;;;;;;5050271;28;20395;-90
2022/10/04 13:47:10;;;;;;;3.50;1.77;;;;;;;;;;5059734;28;20028;-92
2022/10/04 13:50:23;;;;;;;5.40;2.35;;;;;;;;;;5047513;27;20462;-91
2022/10/04 13:56:35;;;;;;;6.10;1.77;;;;;;;;;;5046634;28;20085;-91
2022/10/04 13:59:25;;;;;;;5.88;1.90;;;;;;;;;;5049327;27;20040;-92
2022/10/04 14:02:22;;;;;;;5.78;2.78;;;;;;;;;;5052168;28;20036;-89
2022/10/04 14:05:22;;;;;;;4.20;1.85;;;;;;;;;;5048417;28;20491;-92
2022/10/04 14:08:16;;;;;;;4.40;1.70;;;;;;;;;;5045727;28;20069;-92
2022/10/04 14:11:16;;;;;;;4.82;2.33;;;;;;;;;;5033168;28;20085;-90
2022/10/04 14:14:23;;;;;;;5.47;2.10;;;;;;;;;;5034740;28;20031;-92
2022/10/04 14:17:46;;;;;;;3.75;2.00;;;18.40;99.90;;;;;;5041082;28;20565;-92
2022/10/04 14:20:50;;;;;;;5.30;1.83;;;;;;;;;;5035764;28;20048;-92
2022/10/04 14:23:44;;;;;;;3.53;1.90;;;;;;;;;;5051263;27;20381;-90
2022/10/04 14:26:44;;;;;;;7.03;2.08;;;;;;;;;;5031177;28;20091;-92
2022/10/04 14:29:48;;;;;;;2.60;1.48;;;;;;;;;;5051279;27;20044;-90
2022/10/04 14:33:08;;;;;;;3.88;1.63;;;18.80;99.90;;;;;;5041839;27;20388;-92
2022/10/04 14:36:03;;;;;;;3.05;1.70;;;;;;;;;;5043371;27;20043;-90
2022/10/04 14:39:07;;;;;;;6.00;1.63;;;;;;;;;;5048115;28;20058;-90
2022/10/04 14:42:02;;;;;;;6.82;2.05;;;;;;;;;;5025291;28;20512;-90
2022/10/04 14:45:03;;;;;;;3.92;1.58;;;;;;;;;;5044489;28;20393;-91
2022/10/04 14:48:29;;;;;;;3.38;1.40;;;;;;;;;;5026707;27;20506;-91
2022/10/04 14:51:25;;;;;;;3.95;1.88;;;;;;;;;;5094765;27;20107;-93
2022/10/04 14:54:31;;;;;;;5.72;1.58;;;;;;;;;;5116520;27;1382290;-88
2022/10/04 14:57:25;;;;;;;3.15;1.58;;;;;;;;;;5129116;27;20046;-91
2022/10/04 15:00:09;;;;;;;;;;;;;;;;;;5127458;27;20034;-89
2022/10/04 15:03:10;;;;;;;2.53;1.33;;;;;;;;;;5133049;27;20464;-89
2022/10/04 15:06:05;;;;;;;3.70;1.67;;;;;;;;;;5138479;27;20536;-89
2022/10/04 15:09:09;;;;;;;5.13;1.75;;;;;;;;;;5140717;27;20126;-90
2022/10/04 15:11:56;;;;;;;;;;;17.70;99.90;;;;;;5130592;27;20038;-89
2022/10/04 15:14:44;;;;;;;2.78;1.60;;;;;;;;;;5126799;28;19922;-89
2022/10/04 15:17:36;;;;;;;3.63;2.00;;;;;;;;;;5149554;27;20038;-90
2022/10/04 15:20:55;;;;;;;3.17;1.40;;;17.40;99.90;;;;;;5134757;27;20054;-89
2022/10/04 15:23:42;;;;;;;3.35;1.70;;;;;;;;;;5111353;27;20091;-89
2022/10/04 15:26:35;;;;;;;4.90;1.63;;;;;;;;;;5121732;27;20053;-92
2022/10/04 15:29:23;;;;;;;3.00;1.42;;;;;;;;;;5141990;27;20088;-89
2022/10/04 15:32:19;;;;;;;3.30;1.40;;;;;;;;;;5135792;27;20103;-89
2022/10/04 15:35:30;;;;;;;6.18;1.38;;;16.90;99.90;;;;;;5114783;28;20399;-89
2022/10/04 15:38:18;;;;;;;2.92;1.77;;;;;;;;;;5136696;27;20086;-89
2022/10/04 15:41:26;;;;;;;4.75;1.80;;;;;;;;;;5134968;27;20478;-89
2022/10/04 15:44:20;;;;;;;4.38;1.60;;;;;;;;;;5150701;27;20038;-88
2022/10/04 15:47:07;;;;;;;3.00;1.60;;;;;;;;;;5116458;28;20168;-89
2022/10/04 15:49:55;;;;;;;1.80;1.20;;;;;;;;;;5131024;27;20161;-89
2022/10/04 15:52:43;;;;;;;3.25;1.77;;;;;;;;;;5138138;27;20493;-90
2022/10/04 15:55:32;;;;;;;3.35;1.70;;;;;;;;;;5140789;27;20087;-87
2022/10/04 15:58:19;;;;;;;2.35;1.40;;;;;;;;;;5126738;27;20037;-90
2022/10/04 16:01:25;;;;;;;2.42;1.48;;;;;;;;;;5121752;27;20133;-90
2022/10/04 16:04:29;;;;;;;6.05;1.98;;;;;;;;;;5129023;27;20110;-91
2022/10/04 16:07:31;;;;;;;2.88;1.60;;;;;;;;;;5116247;27;20034;-91
2022/10/04 16:10:35;;;;;;;2.60;1.40;;;;;;;;;;5113849;27;20042;-95
2022/10/04 16:13:29;;;;;;;4.80;1.90;;;;;;;;;;5119305;27;20041;-91
2022/10/04 16:16:18;;;;;;;5.53;1.98;;;;;;;;;;5129827;27;20111;-93
2022/10/04 16:19:39;;;;;;;3.33;1.45;;;;;;;;;;5082386;27;2913621;-89
2022/10/04 16:22:32;;;;;;;3.08;1.70;;;;;;;;;;5144120;27;20042;-90
2022/10/04 16:25:36;;;;;;;4.75;2.10;;;;;;;;;;5156599;27;20032;-90
2022/10/04 16:28:20;;;;;;;;;;;16.20;99.90;;;;;;5156657;27;20038;-92
2022/10/04 16:31:20;;;;;;;4.32;1.83;;;;;;;;;;5150748;27;19914;-92
2022/10/04 16:34:08;;;;;;;4.38;1.52;;;;;;;;;;5156895;27;20038;-92
2022/10/04 16:37:14;;;;;;;4.30;1.58;;;;;;;;;;5167347;27;20087;-92
2022/10/04 16:40:18;;;;;;;3.88;1.77;;;;;;;;;;5149961;27;20104;-93
2022/10/04 16:43:23;;;;;;;;;;;15.90;99.90;;;;;;5170224;27;20033;-92
2022/10/04 16:46:21;;;;;;;5.38;1.70;;;;;;;;;;5167042;27;19951;-93
2022/10/04 16:49:28;;;;;;;3.67;1.70;;;;;;;;;;5168733;27;20485;-93
2022/10/04 16:52:12;;;;;;;4.65;1.90;;;;;;;;;;5172296;27;20550;-94
2022/10/04 16:55:00;;;;;;;3.45;2.15;;;;;;;;;;5156814;27;20040;-90
2022/10/04 16:57:46;;;;;;;2.72;1.55;;;;;;;;;;5135030;27;20037;-92
2022/10/04 17:00:36;;;;;;;4.00;2.30;;;;;;;;;;5135634;27;20421;-91
2022/10/04 17:03:31;;;;;;;4.20;1.77;;;;;;;;;;5156043;27;20044;-92
2022/10/04 17:06:18;;;;;;;6.53;1.92;;;;;;;;;;5156008;27;20146;-91
2022/10/04 17:09:23;;;;;;;3.10;1.83;;;;;;;;;;5155690;27;20447;-91
2022/10/04 17:12:13;;;;;;;3.60;2.05;;;;;;;;;;5155735;27;20118;-92
2022/10/04 17:14:58;;;;;;;3.30;1.60;;;;;;;;;;5155804;27;20029;-92
2022/10/04 17:18:05;;;;;;;3.55;1.77;;;15.40;99.90;;;;;;5170473;27;20431;-92
2022/10/04 17:20:55;;;;;;;3.40;1.70;;;;;;;;;;5155023;27;20565;-92